Time;durP1;ratioP1;P1;durP2;ratioP2;P2;SDS_P1;SDS_P2;PMS_P1;PMS_P2;Temp;Humidity;BMP_temperature;BMP_pressure;BME280_temperature;BME280_humidity;BME280_pressure;Samples;Min_cycle;Max_cycle;Signal;HPM_P1;HPM_P2
2022/01/08 00:02:20;;;;;;;35.00;16.67;;;;;;;-0.06;53.85;100833.78;5446449;32;34831;-69
2022/01/08 00:05:23;;;;;;;36.47;16.20;;;;;;;-0.04;52.77;100840.69;5451930;32;33915;-67
2022/01/08 00:08:25;;;;;;;33.80;16.10;;;;;;;-0.31;53.65;100827.47;5440513;32;33969;-68
2022/01/08 00:11:27;;;;;;;34.03;16.67;;;;;;;0.50;52.03;100836.91;5421255;32;34669;-68
2022/01/08 00:14:30;;;;;;;29.80;15.73;;;;;;;0.68;50.97;100831.03;5457646;32;34665;-67
2022/01/08 00:17:33;;;;;;;30.03;15.60;;;;;;;-0.04;52.93;100825.19;5437269;32;34413;-69
2022/01/08 00:20:36;;;;;;;32.80;15.65;;;;;;;0.44;51.64;100818.75;5458651;32;34089;-66
2022/01/08 00:23:38;;;;;;;35.17;16.23;;;;;;;-0.41;54.34;100817.84;5450815;32;34115;-67
2022/01/08 00:26:40;;;;;;;32.53;16.53;;;;;;;-0.17;54.17;100812.97;5454134;32;35064;-67
2022/01/08 00:29:42;;;;;;;32.03;15.83;;;;;;;-0.67;55.45;100808.06;5455236;32;34354;-66
2022/01/08 00:32:44;;;;;;;30.20;13.87;;;;;;;0.22;52.50;100814.25;5438276;32;34897;-68
2022/01/08 00:35:47;;;;;;;32.30;16.33;;;;;;;0.44;51.91;100802.38;5453893;32;34594;-65
2022/01/08 00:38:49;;;;;;;29.17;14.60;;;;;;;0.15;52.25;100813.31;5441955;32;33824;-66
2022/01/08 00:41:51;;;;;;;31.47;15.23;;;;;;;0.35;51.66;100810.06;5456996;32;34549;-66
2022/01/08 00:44:53;;;;;;;32.70;15.10;;;;;;;-0.06;53.03;100798.47;5449910;32;34521;-68
2022/01/08 00:47:55;;;;;;;34.60;15.30;;;;;;;0.19;52.49;100791.84;5439532;32;34188;-65
2022/01/08 00:50:58;;;;;;;29.07;14.20;;;;;;;0.46;51.82;100791.22;5429180;32;34157;-66
2022/01/08 00:54:00;;;;;;;29.43;14.00;;;;;;;0.11;52.62;100788.28;5449955;32;33915;-66
2022/01/08 00:57:03;;;;;;;26.20;13.93;;;;;;;-0.63;54.45;100785.75;5458740;32;34367;-65
2022/01/08 01:00:08;;;;;;;26.67;13.53;;;;;;;-0.89;55.10;100783.69;5451831;32;35588;-65
2022/01/08 01:03:11;;;;;;;33.67;13.87;;;;;;;-0.72;55.15;100776.16;5448839;32;34230;-65
2022/01/08 01:06:13;;;;;;;25.77;12.10;;;;;;;-0.98;55.01;100791.28;5417343;32;34890;-67
2022/01/08 01:09:15;;;;;;;28.73;12.87;;;;;;;-1.08;55.57;100780.81;5448875;32;34930;-65
2022/01/08 01:12:17;;;;;;;27.27;12.60;;;;;;;-1.12;55.29;100778.19;5453135;32;34570;-65
2022/01/08 01:15:39;;;;;;;27.07;13.30;;;;;;;-0.62;54.51;100769.41;5440453;32;38514;-66
2022/01/08 01:18:41;;;;;;;28.23;12.53;;;;;;;-0.50;53.58;100753.19;5448695;32;34808;-66
2022/01/08 01:21:43;;;;;;;24.50;11.80;;;;;;;-0.71;53.86;100744.34;5452063;32;34763;-66
2022/01/08 01:24:47;;;;;;;28.40;13.43;;;;;;;-0.69;53.91;100744.38;5454814;32;34086;-69
2022/01/08 01:27:58;;;;;;;27.65;13.23;;;;;;;-0.88;54.27;100740.69;5439902;32;34602;-66
2022/01/08 01:47:26;;;;;;;31.40;12.93;;;;;;;-0.68;53.36;100725.44;5453275;32;34066;-66
2022/01/08 01:50:28;;;;;;;24.17;12.50;;;;;;;-0.38;53.63;100717.19;5445680;32;34647;-66
2022/01/08 01:53:30;;;;;;;28.40;12.67;;;;;;;-0.42;53.55;100710.25;5453111;32;33781;-65
2022/01/08 01:56:33;;;;;;;25.80;12.83;;;;;;;-0.23;52.72;100712.16;5458057;32;34180;-67
2022/01/08 01:59:36;;;;;;;27.10;13.03;;;;;;;-0.84;54.28;100717.53;5440700;32;34885;-67
2022/01/08 02:02:40;;;;;;;26.98;12.82;;;;;;;-0.70;53.81;100707.38;5435134;32;35639;-67
2022/01/08 02:05:42;;;;;;;23.85;12.05;;;;;;;-1.01;55.07;100711.28;5439847;32;35164;-67
2022/01/08 02:08:45;;;;;;;25.60;13.60;;;;;;;-0.06;52.81;100700.28;5420581;32;34808;-67
2022/01/08 02:12:00;;;;;;;29.13;13.10;;;;;;;-1.31;56.47;100709.13;5457558;32;34974;-64
2022/01/08 02:15:03;;;;;;;26.83;12.07;;;;;;;-1.46;56.73;100698.59;5437671;32;34138;-66
2022/01/08 02:18:05;;;;;;;27.23;12.30;;;;;;;-0.58;54.91;100689.44;5440242;32;34478;-68
2022/01/08 02:21:07;;;;;;;27.93;12.63;;;;;;;-1.20;55.42;100691.25;5445677;32;33875;-67
2022/01/08 02:24:09;;;;;;;30.00;12.53;;;;;;;-1.48;55.91;100690.84;5436068;32;34720;-67
2022/01/08 02:27:12;;;;;;;24.23;11.57;;;;;;;-0.62;52.72;100687.66;5460742;32;35118;-65
2022/01/08 02:30:15;;;;;;;26.73;12.40;;;;;;;-1.00;53.16;100691.50;5451582;32;34846;-65
2022/01/08 02:33:17;;;;;;;25.97;11.60;;;;;;;-1.15;53.96;100697.34;5458152;32;35127;-66
2022/01/08 02:36:19;;;;;;;23.93;11.47;;;;;;;-0.97;52.49;100688.94;5449416;32;34146;-67
2022/01/08 02:39:22;;;;;;;23.43;11.17;;;;;;;-0.23;51.40;100681.16;5434895;32;34971;-65
2022/01/08 02:42:28;;;;;;;25.63;11.87;;;;;;;-1.57;54.48;100682.13;5436687;32;34013;-67
2022/01/08 02:45:31;;;;;;;25.40;11.17;;;;;;;-1.19;53.49;100678.34;5450809;32;33739;-69
2022/01/08 02:48:33;;;;;;;23.90;11.37;;;;;;;-0.83;52.34;100679.69;5432579;32;34733;-66
2022/01/08 02:51:35;;;;;;;24.17;11.20;;;;;;;-0.80;52.37;100686.56;5438950;32;34040;-67
2022/01/08 02:54:37;;;;;;;25.90;12.07;;;;;;;-0.89;52.15;100684.75;5443699;32;33871;-67
2022/01/08 02:57:40;;;;;;;27.67;11.53;;;;;;;-1.28;54.07;100682.53;5438629;32;34801;-65
2022/01/08 03:00:42;;;;;;;24.37;11.93;;;;;;;-1.42;54.52;100687.47;5452802;32;34315;-66
2022/01/08 03:03:45;;;;;;;23.03;10.93;;;;;;;-1.52;54.91;100681.34;5436138;32;35115;-65
2022/01/08 03:06:47;;;;;;;25.87;11.30;;;;;;;-1.38;53.87;100672.09;5450132;32;34036;-67
2022/01/08 03:09:56;;;;;;;26.70;11.70;;;;;;;-1.19;54.14;100668.03;5442635;32;35158;-66
2022/01/08 03:12:59;;;;;;;28.23;12.63;;;;;;;-1.04;53.65;100671.66;5431855;32;34325;-65
2022/01/08 03:16:02;;;;;;;27.07;10.80;;;;;;;-1.16;54.24;100667.19;5457021;32;33903;-65
2022/01/08 03:19:10;;;;;;;27.23;12.33;;;;;;;-0.70;52.57;100673.81;5439702;32;34518;-64
2022/01/08 03:22:12;;;;;;;23.43;12.17;;;;;;;-0.99;53.20;100670.87;5439592;32;34801;-66
2022/01/08 03:25:15;;;;;;;26.30;11.87;;;;;;;-0.71;52.66;100671.19;5456457;32;34798;-67
2022/01/08 03:28:18;;;;;;;25.62;12.65;;;;;;;-0.91;53.54;100673.53;5453073;32;34872;-69
2022/01/08 03:31:25;;;;;;;26.93;12.97;;;;;;;-1.17;54.27;100670.63;5459448;32;36248;-65
2022/01/08 03:34:27;;;;;;;28.50;13.13;;;;;;;-0.10;51.18;100666.63;5434102;32;33864;-67
2022/01/08 03:37:30;;;;;;;26.13;12.40;;;;;;;-0.91;52.25;100670.94;5450472;32;34824;-65
2022/01/08 03:40:32;;;;;;;30.03;13.00;;;;;;;-0.88;52.82;100664.13;5457110;32;34160;-65
2022/01/08 03:43:34;;;;;;;25.87;12.00;;;;;;;0.42;48.90;100667.03;5427020;32;34911;-67
2022/01/08 03:46:37;;;;;;;28.00;12.43;;;;;;;0.30;49.24;100669.53;5427304;32;34072;-66
2022/01/08 03:49:39;;;;;;;27.90;13.13;;;;;;;-1.04;52.13;100680.25;5452345;32;34335;-67
2022/01/08 03:52:41;;;;;;;28.20;13.17;;;;;;;-1.37;54.10;100685.84;5432205;32;35999;-65
2022/01/08 03:55:44;;;;;;;29.83;13.43;;;;;;;-1.31;54.65;100687.63;5451834;32;33880;-65
2022/01/08 03:58:46;;;;;;;29.43;13.37;;;;;;;-1.24;53.68;100679.12;5452743;32;34041;-67
2022/01/08 04:01:48;;;;;;;28.53;13.00;;;;;;;-1.92;55.97;100692.75;5455345;32;33571;-65
2022/01/08 04:04:50;;;;;;;26.90;13.33;;;;;;;-1.61;55.20;100694.09;5440244;32;33996;-69
2022/01/08 04:07:52;;;;;;;24.67;13.20;;;;;;;-1.40;55.05;100688.37;5441597;32;34869;-65
2022/01/08 04:10:55;;;;;;;26.97;13.27;;;;;;;-1.33;55.09;100679.88;5434084;32;33993;-67
2022/01/08 04:13:57;;;;;;;26.00;12.37;;;;;;;-1.34;55.01;100678.16;5449028;32;35000;-68
2022/01/08 04:16:59;;;;;;;29.23;14.07;;;;;;;-1.24;54.50;100685.16;5452155;32;35006;-64
2022/01/08 04:20:02;;;;;;;27.57;13.10;;;;;;;-0.89;53.87;100682.19;5438771;32;33929;-68
2022/01/08 04:23:04;;;;;;;28.53;14.07;;;;;;;-0.78;53.44;100669.38;5456085;32;34376;-67
2022/01/08 04:26:06;;;;;;;25.53;12.67;;;;;;;-1.33;55.29;100663.56;5437722;32;33781;-64
2022/01/08 04:29:10;;;;;;;28.47;13.63;;;;;;;-1.24;55.16;100654.22;5441263;32;34943;-64
2022/01/08 04:32:12;;;;;;;26.92;13.25;;;;;;;-0.52;52.78;100649.88;5453223;32;34173;-65
2022/01/08 04:35:14;;;;;;;31.03;14.23;;;;;;;-0.94;53.80;100640.84;5440736;32;34851;-64
2022/01/08 04:38:17;;;;;;;34.57;14.47;;;;;;;-1.37;55.78;100636.84;5447977;32;34847;-68
2022/01/08 04:41:19;;;;;;;30.10;14.67;;;;;;;-1.22;55.65;100642.22;5453647;32;34821;-66
2022/01/08 04:44:21;;;;;;;32.00;14.20;;;;;;;-1.40;57.02;100635.09;5449116;32;34572;-66
2022/01/08 04:47:23;;;;;;;30.27;15.07;;;;;;;-1.36;57.35;100638.56;5452268;32;34043;-67
2022/01/08 04:50:27;;;;;;;28.70;14.93;;;;;;;-1.23;56.48;100630.16;5444120;32;33849;-66
2022/01/08 04:53:29;;;;;;;27.58;14.70;;;;;;;-1.56;58.52;100637.44;5437255;32;33997;-69
2022/01/08 04:56:32;;;;;;;30.90;14.37;;;;;;;-1.57;58.81;100627.97;5443765;32;35281;-66
2022/01/08 04:59:34;;;;;;;31.13;14.77;;;;;;;-1.70;60.06;100625.22;5451429;32;34014;-65
2022/01/08 05:02:37;;;;;;;28.13;14.47;;;;;;;-1.60;59.44;100623.66;5434677;32;34697;-68
2022/01/08 05:05:39;;;;;;;28.73;14.73;;;;;;;-1.91;60.93;100630.06;5450384;32;34884;-67
2022/01/08 05:08:41;;;;;;;29.43;14.53;;;;;;;-1.76;61.10;100621.69;5445836;32;33927;-68
2022/01/08 05:11:43;;;;;;;29.03;14.33;;;;;;;-2.25;62.92;100628.69;5457192;32;34544;-68
2022/01/08 05:14:46;;;;;;;31.53;15.73;;;;;;;-2.00;62.40;100617.03;5444155;32;33928;-69
2022/01/08 05:17:54;;;;;;;32.17;13.97;;;;;;;-1.73;61.84;100616.59;5442818;32;34029;-65
2022/01/08 05:21:08;;;;;;;32.23;14.97;;;;;;;-1.13;60.22;100626.84;5452180;32;33997;-67
2022/01/08 05:24:11;;;;;;;31.27;14.20;;;;;;;-1.37;59.76;100621.38;5450918;32;35245;-65
2022/01/08 05:27:17;;;;;;;30.03;15.37;;;;;;;-1.78;61.35;100607.94;5458137;32;34625;-65
2022/01/08 05:30:20;;;;;;;31.03;15.07;;;;;;;-1.61;60.95;100621.94;5437127;32;34599;-68
2022/01/08 05:33:23;;;;;;;33.85;15.15;;;;;;;-1.06;59.32;100621.75;5435294;32;34934;-65
2022/01/08 05:36:25;;;;;;;31.23;14.27;;;;;;;-1.02;59.66;100634.72;5446205;32;34272;-64
2022/01/08 05:39:27;;;;;;;34.17;15.27;;;;;;;0.06;56.30;100631.44;5449794;32;34666;-68
2022/01/08 05:42:29;;;;;;;34.03;15.67;;;;;;;-1.26;60.27;100635.28;5438968;32;34683;-65
2022/01/08 05:45:32;;;;;;;27.80;15.03;;;;;;;-1.82;62.25;100627.63;5435355;32;34547;-65
2022/01/08 05:48:36;;;;;;;30.63;16.20;;;;;;;-1.24;60.61;100615.53;5442742;32;34547;-66
2022/01/08 05:51:38;;;;;;;32.67;14.20;;;;;;;-1.28;61.70;100621.50;5437643;32;35061;-67
2022/01/08 05:54:42;;;;;;;28.57;14.97;;;;;;;-0.99;60.70;100616.69;5442347;32;34760;-69
2022/01/08 05:57:45;;;;;;;31.93;15.73;;;;;;;0.07;56.69;100612.53;5436305;32;33888;-68
2022/01/08 06:00:47;;;;;;;30.07;15.37;;;;;;;-0.66;58.14;100630.81;5449351;32;34491;-69
2022/01/08 06:03:49;;;;;;;31.70;16.27;;;;;;;-0.96;59.52;100632.22;5449120;32;35373;-70
2022/01/08 06:06:52;;;;;;;34.03;15.57;;;;;;;-1.00;59.25;100635.59;5445206;32;35120;-66
2022/01/08 06:09:54;;;;;;;30.77;15.83;;;;;;;-0.59;58.82;100642.91;5437157;32;34078;-68
2022/01/08 06:12:56;;;;;;;29.33;14.77;;;;;;;-0.31;57.83;100647.53;5440354;32;33988;-70
2022/01/08 06:15:58;;;;;;;35.40;15.23;;;;;;;-1.14;60.45;100647.47;5456912;32;34056;-67
2022/01/08 06:19:03;;;;;;;46.60;25.57;;;;;;;-0.48;58.52;100653.38;5450730;32;34017;-68
2022/01/08 06:22:05;;;;;;;31.83;16.53;;;;;;;-0.61;57.39;100665.28;5452223;32;34760;-66
2022/01/08 06:25:08;;;;;;;36.63;15.37;;;;;;;-1.49;61.45;100673.63;5458601;32;33958;-68
2022/01/08 06:28:10;;;;;;;33.50;15.13;;;;;;;-1.29;60.92;100670.47;5452597;32;34563;-67
2022/01/08 06:31:13;;;;;;;30.97;15.07;;;;;;;-1.03;59.82;100673.38;5460511;32;34535;-64
2022/01/08 06:34:15;;;;;;;29.23;14.07;;;;;;;-1.36;60.18;100664.34;5449797;32;34034;-65
2022/01/08 06:37:19;;;;;;;31.33;13.83;;;;;;;-0.77;59.11;100665.94;5455786;32;34649;-65
2022/01/08 06:40:22;;;;;;;26.97;12.90;;;;;;;-1.61;60.11;100662.28;5452896;32;33943;-67
2022/01/08 06:43:24;;;;;;;27.30;13.77;;;;;;;-1.21;58.54;100659.44;5446325;32;34729;-65
2022/01/08 06:46:26;;;;;;;27.23;13.20;;;;;;;-1.47;60.34;100651.34;5459764;32;34038;-65
2022/01/08 06:49:28;;;;;;;33.47;14.23;;;;;;;-1.07;59.67;100656.16;5452362;32;33972;-65
2022/01/08 06:52:33;;;;;;;27.67;12.73;;;;;;;-1.47;60.25;100653.06;5445292;32;34624;-68
2022/01/08 06:55:35;;;;;;;26.03;13.27;;;;;;;-1.53;61.05;100651.25;5436035;32;34304;-67
2022/01/08 06:58:38;;;;;;;27.73;12.33;;;;;;;-1.41;61.24;100653.13;5457442;32;34895;-65
2022/01/08 07:01:40;;;;;;;28.30;13.13;;;;;;;-0.13;56.46;100633.91;5439244;32;34910;-68
2022/01/08 07:04:42;;;;;;;29.67;13.80;;;;;;;-0.60;57.62;100643.78;5438842;32;34360;-65
2022/01/08 07:07:45;;;;;;;27.90;13.13;;;;;;;-1.87;61.27;100644.72;5450052;32;34054;-67
2022/01/08 07:10:47;;;;;;;26.90;12.60;;;;;;;-1.50;61.79;100647.84;5453611;32;34459;-65
2022/01/08 07:13:49;;;;;;;28.40;13.00;;;;;;;-0.28;56.61;100641.50;5449545;32;33924;-65
2022/01/08 07:16:51;;;;;;;27.37;12.93;;;;;;;-0.93;57.72;100641.69;5452342;32;35122;-67
2022/01/08 07:19:53;;;;;;;32.10;14.87;;;;;;;-1.41;60.32;100635.97;5430087;32;33674;-68
2022/01/08 07:22:56;;;;;;;27.77;12.73;;;;;;;-1.49;60.53;100634.97;5440877;32;34298;-70
2022/01/08 07:25:58;;;;;;;30.17;13.27;;;;;;;-1.85;61.72;100627.59;5453115;32;33958;-66
2022/01/08 07:29:00;;;;;;;29.80;14.20;;;;;;;-1.94;62.21;100633.44;5458595;32;33988;-67
2022/01/08 07:32:03;;;;;;;29.93;14.50;;;;;;;-1.25;60.19;100620.66;5452831;32;33946;-64
2022/01/08 07:35:06;;;;;;;31.77;14.17;;;;;;;-1.82;60.85;100617.31;5456030;32;34756;-67
2022/01/08 07:38:08;;;;;;;28.60;13.87;;;;;;;-1.71;60.46;100614.91;5422438;32;34602;-65
2022/01/08 07:41:11;;;;;;;27.57;13.20;;;;;;;-0.95;57.90;100621.03;5457001;32;35158;-66
2022/01/08 07:44:13;;;;;;;27.43;13.23;;;;;;;-1.05;57.30;100615.75;5430154;32;34578;-68
2022/01/08 07:47:17;;;;;;;26.13;12.63;;;;;;;-0.96;58.13;100621.91;5452925;32;34417;-64
2022/01/08 07:50:19;;;;;;;28.23;13.88;;;;;;;-1.12;57.09;100628.56;5444276;32;35548;-65
2022/01/08 07:53:21;;;;;;;29.43;14.60;;;;;;;-0.92;57.78;100620.19;5452990;32;34354;-68
2022/01/08 07:56:23;;;;;;;26.30;13.30;;;;;;;-1.10;58.10;100620.84;5458698;32;33833;-67
2022/01/08 07:59:28;;;;;;;26.30;12.70;;;;;;;-0.31;56.56;100603.59;5445680;32;34747;-66
2022/01/08 08:02:30;;;;;;;26.80;13.70;;;;;;;-1.18;57.15;100607.88;5447830;32;34092;-65
2022/01/08 08:05:33;;;;;;;23.80;12.20;;;;;;;-1.12;58.15;100609.66;5435005;32;35760;-67
2022/01/08 08:08:35;;;;;;;26.03;12.13;;;;;;;-0.42;55.93;100607.81;5438248;32;35575;-65
2022/01/08 08:11:37;;;;;;;22.13;11.17;;;;;;;0.13;53.90;100599.59;5430392;32;34826;-67
2022/01/08 08:14:41;;;;;;;24.90;12.07;;;;;;;0.18;53.45;100595.34;5452171;32;34929;-68
2022/01/08 08:17:43;;;;;;;;;;;;;;;-0.59;55.06;100599.03;5457422;32;34337;-66
2022/01/08 08:20:46;;;;;;;25.07;11.70;;;;;;;-0.64;55.54;100595.56;5453168;32;35948;-65
2022/01/08 08:23:48;;;;;;;23.73;11.67;;;;;;;0.31;53.28;100573.00;5436564;32;34317;-67
2022/01/08 08:26:50;;;;;;;32.57;12.73;;;;;;;0.72;52.05;100579.25;5457682;32;33805;-67
2022/01/08 08:29:53;;;;;;;26.50;12.90;;;;;;;-0.16;54.42;100577.03;5438809;32;34158;-65
2022/01/08 08:32:55;;;;;;;24.10;11.77;;;;;;;0.39;53.23;100569.63;5444303;32;33996;-68
2022/01/08 08:35:57;;;;;;;24.37;10.77;;;;;;;0.67;52.07;100560.25;5433780;32;33860;-66
2022/01/08 08:39:00;;;;;;;22.07;12.10;;;;;;;1.07;50.11;100558.66;5455089;32;34825;-67
2022/01/08 08:42:02;;;;;;;23.93;12.00;;;;;;;1.30;50.40;100557.84;5449818;32;35260;-66
2022/01/08 08:45:07;;;;;;;25.80;9.87;;;;;;;0.38;52.24;100552.37;5446940;32;33779;-64
2022/01/08 08:48:09;;;;;;;21.27;10.83;;;;;;;0.59;51.01;100553.34;5442842;32;34757;-68
2022/01/08 08:51:12;;;;;;;23.80;11.33;;;;;;;0.21;52.50;100560.06;5425292;32;34287;-66
2022/01/08 08:54:14;;;;;;;23.73;11.50;;;;;;;0.92;51.12;100556.03;5454752;32;33988;-65
2022/01/08 08:57:16;;;;;;;28.93;11.93;;;;;;;0.86;50.15;100565.50;5446556;32;34621;-66
2022/01/08 09:00:19;;;;;;;23.10;9.90;;;;;;;1.23;50.12;100562.16;5422516;32;173924;-66
2022/01/08 09:03:21;;;;;;;23.50;10.90;;;;;;;1.52;49.53;100575.13;5431323;32;34056;-68
2022/01/08 09:06:26;;;;;;;21.92;10.60;;;;;;;0.37;51.22;100578.22;5424597;32;34651;-68
2022/01/08 09:09:29;;;;;;;23.30;10.57;;;;;;;1.61;48.66;100569.97;5451030;32;34590;-68
2022/01/08 09:12:32;;;;;;;21.40;10.50;;;;;;;1.58;47.80;100561.31;5431087;32;33963;-67
2022/01/08 09:15:37;;;;;;;25.43;10.60;;;;;;;1.83;47.60;100547.50;5458493;32;33982;-68
2022/01/08 09:18:41;;;;;;;30.03;12.13;;;;;;;1.05;49.86;100546.59;5437387;32;33849;-67
2022/01/08 09:21:44;;;;;;;24.20;10.45;;;;;;;0.75;51.24;100549.94;5457222;32;34102;-67
2022/01/08 09:24:46;;;;;;;21.07;9.53;;;;;;;1.03;50.15;100544.00;5440072;32;34497;-65
2022/01/08 09:27:48;;;;;;;24.50;10.90;;;;;;;0.90;50.33;100557.78;5436762;32;34555;-69
2022/01/08 09:30:51;;;;;;;25.27;8.77;;;;;;;1.51;48.03;100542.31;5458165;32;34943;-66
2022/01/08 09:33:53;;;;;;;21.50;9.30;;;;;;;0.82;48.97;100544.78;5435222;32;33997;-70
2022/01/08 09:36:55;;;;;;;24.47;9.10;;;;;;;2.02;47.00;100537.97;5452445;32;34455;-69
2022/01/08 09:39:58;;;;;;;21.80;10.27;;;;;;;2.80;45.15;100518.66;5449690;32;34063;-67
2022/01/08 09:43:00;;;;;;;20.80;10.20;;;;;;;2.37;45.62;100522.28;5447701;32;34050;-69
2022/01/08 09:46:04;;;;;;;19.50;9.40;;;;;;;1.88;46.34;100522.44;5454272;32;33821;-67
2022/01/08 09:49:06;;;;;;;20.60;9.13;;;;;;;2.04;45.46;100507.69;5436773;32;34847;-66
2022/01/08 09:52:08;;;;;;;26.10;14.07;;;;;;;1.41;47.29;100508.63;5457954;32;33985;-66
2022/01/08 09:55:11;;;;;;;19.33;8.93;;;;;;;1.22;46.96;100518.13;5452012;32;34851;-66
2022/01/08 09:58:13;;;;;;;27.03;10.07;;;;;;;1.49;46.77;100517.28;5459312;32;34561;-70
2022/01/08 10:01:31;;;;;;;21.03;9.30;;;;;;;1.78;46.26;100504.28;5438515;32;34042;-70
2022/01/08 10:04:36;;;;;;;23.80;9.80;;;;;;;2.02;45.97;100503.41;5435793;32;35049;-66
2022/01/08 10:07:41;;;;;;;24.27;10.43;;;;;;;1.63;48.03;100506.03;5459382;32;34033;-67
2022/01/08 10:11:00;;;;;;;21.93;10.03;;;;;;;1.16;48.62;100497.38;5433684;32;34770;-65
2022/01/08 10:14:06;;;;;;;20.47;10.80;;;;;;;1.99;47.29;100493.00;5424053;32;33948;-66
2022/01/08 10:17:14;;;;;;;20.90;9.83;;;;;;;1.70;47.22;100498.28;5448982;32;34615;-68
2022/01/08 10:20:33;;;;;;;19.27;9.80;;;;;;;2.57;44.81;100477.22;5414715;32;34207;-67
2022/01/08 10:23:36;;;;;;;22.53;11.67;;;;;;;1.31;47.43;100481.88;5444317;32;34812;-67
2022/01/08 10:26:40;;;;;;;21.77;11.47;;;;;;;2.32;45.62;100467.00;5438067;32;33553;-65
2022/01/08 10:29:53;;;;;;;23.93;11.47;;;;;;;1.70;48.22;100481.00;5457123;32;34112;-67
2022/01/08 10:33:00;;;;;;;26.07;12.37;;;;;;;0.78;50.51;100480.09;5452747;32;33728;-65
2022/01/08 10:36:03;;;;;;;24.20;12.60;;;;;;;1.20;48.99;100478.41;5438534;32;33974;-67
2022/01/08 10:39:17;;;;;;;25.97;11.50;;;;;;;2.21;47.76;100478.28;5439301;32;34872;-66
2022/01/08 10:42:21;;;;;;;37.83;10.30;;;;;;;2.71;45.39;100458.16;5450837;32;34056;-67
2022/01/08 10:45:25;;;;;;;21.62;10.98;;;;;;;2.52;45.74;100456.53;5443083;32;35090;-67
2022/01/08 10:48:30;;;;;;;23.27;11.13;;;;;;;2.23;45.59;100463.56;5452558;32;31694;-66
2022/01/08 10:51:40;;;;;;;29.20;10.97;;;;;;;2.51;44.92;100472.06;5445592;32;33010;-68
2022/01/08 10:54:44;;;;;;;22.53;9.70;;;;;;;2.23;44.37;100469.59;5453443;32;34691;-66
2022/01/08 10:57:47;;;;;;;21.70;9.30;;;;;;;1.00;47.67;100471.50;5438235;32;34788;-64
2022/01/08 11:00:49;;;;;;;23.00;9.60;;;;;;;1.83;45.55;100477.50;5445503;32;33995;-65
2022/01/08 11:03:51;;;;;;;19.50;9.43;;;;;;;2.66;42.88;100474.59;5439600;32;35165;-67
2022/01/08 11:06:57;;;;;;;18.07;8.93;;;;;;;1.60;45.45;100476.66;5453832;32;34075;-65
2022/01/08 11:10:07;;;;;;;17.97;8.47;;;;;;;0.53;47.29;100474.87;5447814;32;34572;-66
2022/01/08 11:13:13;;;;;;;19.13;8.27;;;;;;;1.96;44.67;100480.06;5434950;32;33884;-67
2022/01/08 11:16:16;;;;;;;16.23;8.40;;;;;;;0.52;46.94;100467.97;5440543;32;34718;-66
2022/01/08 11:19:18;;;;;;;17.60;7.83;;;;;;;1.41;45.83;100472.38;5452020;32;34821;-68
2022/01/08 11:22:23;;;;;;;19.40;7.97;;;;;;;0.44;47.77;100477.41;5444634;32;34756;-65
2022/01/08 11:25:33;;;;;;;19.70;8.67;;;;;;;1.05;46.73;100462.03;5429338;32;33661;-66
2022/01/08 11:28:37;;;;;;;16.43;8.27;;;;;;;0.45;47.95;100461.06;5455029;32;33900;-65
2022/01/08 11:31:41;;;;;;;22.07;8.77;;;;;;;1.10;46.54;100450.81;5421033;32;34583;-65
2022/01/08 11:34:45;;;;;;;18.30;8.63;;;;;;;0.76;46.81;100458.53;5424403;32;34203;-67
2022/01/08 11:37:48;;;;;;;21.08;9.10;;;;;;;0.67;48.17;100466.28;5454534;32;34769;-66
2022/01/08 11:40:54;;;;;;;20.87;8.77;;;;;;;1.58;45.47;100457.69;5436434;32;35763;-67
2022/01/08 11:43:56;;;;;;;20.83;8.83;;;;;;;2.13;44.19;100442.00;5432315;32;34167;-65
2022/01/08 11:46:59;;;;;;;23.02;9.63;;;;;;;1.59;45.61;100462.00;5451610;32;35425;-68
2022/01/08 11:50:05;;;;;;;20.57;9.33;;;;;;;2.16;44.69;100458.41;5457814;32;33878;-66
2022/01/08 11:53:14;;;;;;;19.87;8.67;;;;;;;2.32;43.97;100454.03;5439406;32;34079;-68
2022/01/08 11:56:28;;;;;;;18.27;8.37;;;;;;;2.24;44.37;100452.31;5452771;32;34741;-67
2022/01/08 11:59:32;;;;;;;17.93;8.10;;;;;;;1.49;46.24;100455.97;5452992;32;35439;-68
2022/01/08 12:02:38;;;;;;;17.80;8.07;;;;;;;2.51;43.91;100447.00;5444946;32;34711;-66
2022/01/08 12:05:41;;;;;;;18.50;9.10;;;;;;;2.83;43.41;100438.16;5451873;32;34087;-66
2022/01/08 12:09:27;;;;;;;18.00;9.07;;;;;;;2.76;43.04;100429.53;5451352;32;35057;-68
2022/01/08 12:12:43;;;;;;;20.50;9.17;;;;;;;3.66;41.88;100417.53;5445118;32;35130;-66
2022/01/08 12:15:48;;;;;;;17.20;8.30;;;;;;;2.91;43.38;100416.47;5459002;32;34016;-66
2022/01/08 12:18:53;;;;;;;18.00;8.60;;;;;;;2.72;42.88;100412.28;5450557;32;35898;-69
2022/01/08 12:21:57;;;;;;;17.63;8.97;;;;;;;3.55;42.01;100407.25;5456870;32;33954;-67
2022/01/08 12:25:02;;;;;;;20.45;9.00;;;;;;;3.88;39.93;100398.22;5439753;32;35054;-66
2022/01/08 12:28:06;;;;;;;17.20;8.07;;;;;;;2.84;42.92;100406.16;5437738;32;34180;-66
2022/01/08 12:31:25;;;;;;;16.90;8.67;;;;;;;4.57;39.36;100386.91;5444157;32;34252;-66
2022/01/08 12:34:32;;;;;;;19.77;8.90;;;;;;;2.98;42.21;100386.13;5450935;32;33995;-66
2022/01/08 12:37:40;;;;;;;21.23;8.70;;;;;;;3.07;42.21;100374.81;5454162;32;34062;-69
2022/01/08 12:40:45;;;;;;;15.40;8.70;;;;;;;4.20;39.49;100374.44;5437328;32;37402;-70
2022/01/08 12:43:47;;;;;;;19.13;8.30;;;;;;;3.91;39.21;100379.13;5425608;32;33747;-69
2022/01/08 12:46:50;;;;;;;15.53;7.90;;;;;;;3.19;40.79;100379.87;5457386;32;34301;-67
2022/01/08 12:50:17;;;;;;;16.27;8.73;;;;;;;3.29;40.59;100378.94;5450842;32;34936;-66
2022/01/08 12:53:26;;;;;;;17.13;9.10;;;;;;;3.37;40.79;100368.47;5456967;32;35453;-65
2022/01/08 12:56:29;;;;;;;16.73;8.10;;;;;;;3.97;39.35;100360.84;5438305;32;34172;-66
2022/01/08 12:59:39;;;;;;;17.83;8.80;;;;;;;3.61;39.73;100362.16;5450714;32;33961;-69
2022/01/08 13:02:47;;;;;;;17.50;8.50;;;;;;;1.88;44.22;100368.66;5439107;32;34375;-68
2022/01/08 13:05:51;;;;;;;20.13;7.77;;;;;;;4.23;38.97;100347.50;5444356;32;34918;-67
2022/01/08 13:08:54;;;;;;;18.40;9.10;;;;;;;3.03;40.97;100352.31;5430045;32;34171;-67
2022/01/08 13:11:56;;;;;;;21.35;9.30;;;;;;;2.78;40.98;100355.16;5448222;32;33979;-68
2022/01/08 13:15:01;;;;;;;20.10;9.10;;;;;;;2.98;41.04;100354.97;5436543;32;33908;-68
2022/01/08 13:18:26;;;;;;;25.03;9.37;;;;;;;2.50;42.16;100359.66;5454033;32;33969;-67
2022/01/08 13:21:34;;;;;;;20.10;8.97;;;;;;;2.88;41.01;100354.19;5451821;32;33866;-66
2022/01/08 13:24:45;;;;;;;20.83;9.37;;;;;;;2.89;40.55;100347.25;5457227;32;33982;-68
2022/01/08 13:27:50;;;;;;;19.23;9.83;;;;;;;3.31;40.43;100348.59;5450097;32;35521;-67
2022/01/08 13:30:53;;;;;;;19.63;9.20;;;;;;;3.20;40.37;100340.91;5457155;32;35433;-67
2022/01/08 13:33:56;;;;;;;19.62;9.90;;;;;;;3.96;39.32;100343.53;5445824;32;34917;-66
2022/01/08 13:37:07;;;;;;;19.57;9.17;;;;;;;3.07;40.13;100341.91;5448429;32;34811;-69
2022/01/08 13:40:10;;;;;;;17.97;8.80;;;;;;;3.51;39.22;100338.00;5445535;32;34804;-67
2022/01/08 13:43:12;;;;;;;19.40;9.33;;;;;;;3.47;39.25;100329.34;5445964;32;34041;-69
2022/01/08 13:46:15;;;;;;;17.27;8.13;;;;;;;3.26;38.35;100324.41;5432609;32;34481;-69
2022/01/08 13:49:19;;;;;;;18.20;7.73;;;;;;;3.92;37.34;100321.03;5438988;32;34067;-67
2022/01/08 13:52:29;;;;;;;16.67;8.53;;;;;;;3.63;36.90;100317.06;5440057;32;34988;-65
2022/01/08 13:55:42;;;;;;;19.63;9.40;;;;;;;3.37;37.68;100319.09;5457030;32;34775;-68
2022/01/08 13:58:47;;;;;;;16.05;6.95;;;;;;;4.13;36.66;100320.78;5451031;32;34178;-69
2022/01/08 14:01:50;;;;;;;16.93;6.60;;;;;;;3.22;36.37;100322.69;5457374;32;35190;-67
2022/01/08 14:04:53;;;;;;;14.80;6.97;;;;;;;4.56;34.36;100318.37;5441976;32;34338;-66
2022/01/08 14:08:05;;;;;;;16.45;7.15;;;;;;;5.63;32.08;100313.88;5423882;32;35229;-69
2022/01/08 14:11:07;;;;;;;15.53;8.10;;;;;;;4.74;33.12;100319.81;5455522;32;35581;-66
2022/01/08 14:14:15;;;;;;;16.43;8.13;;;;;;;4.70;34.50;100317.28;5444970;32;34699;-67
2022/01/08 14:17:18;;;;;;;16.90;7.57;;;;;;;4.84;33.76;100321.41;5445258;32;33915;-66
2022/01/08 14:20:24;;;;;;;17.87;8.63;;;;;;;2.99;37.91;100322.94;5451554;32;34694;-66
2022/01/08 14:23:28;;;;;;;17.73;7.83;;;;;;;3.72;37.30;100310.88;5437733;32;34773;-68